sensor_id;sensor_type;location;lat;lon;timestamp;P1;durP1;ratioP1;P2;durP2;ratioP2
2756;SDS011;1386;50.862;6.494;2022-07-12T00:02:12;4.03;;;3.60;;
2756;SDS011;1386;50.862;6.494;2022-07-12T00:04:40;3.50;;;3.20;;
2756;SDS011;1386;50.862;6.494;2022-07-12T00:07:07;3.77;;;3.37;;
2756;SDS011;1386;50.862;6.494;2022-07-12T00:09:33;6.97;;;3.47;;
2756;SDS011;1386;50.862;6.494;2022-07-12T00:12:00;3.97;;;3.10;;
2756;SDS011;1386;50.862;6.494;2022-07-12T00:14:29;3.50;;;3.20;;
2756;SDS011;1386;50.862;6.494;2022-07-12T00:16:56;3.80;;;3.30;;
2756;SDS011;1386;50.862;6.494;2022-07-12T00:19:22;4.27;;;3.87;;
2756;SDS011;1386;50.862;6.494;2022-07-12T00:21:49;7.80;;;4.40;;
2756;SDS011;1386;50.862;6.494;2022-07-12T00:24:17;5.33;;;4.03;;
2756;SDS011;1386;50.862;6.494;2022-07-12T00:26:44;6.53;;;4.20;;
2756;SDS011;1386;50.862;6.494;2022-07-12T00:29:10;4.20;;;3.77;;
2756;SDS011;1386;50.862;6.494;2022-07-12T00:31:39;4.53;;;4.03;;
2756;SDS011;1386;50.862;6.494;2022-07-12T00:34:05;5.87;;;4.63;;
2756;SDS011;1386;50.862;6.494;2022-07-12T00:36:32;4.80;;;4.37;;
2756;SDS011;1386;50.862;6.494;2022-07-12T00:38:59;5.57;;;4.53;;
2756;SDS011;1386;50.862;6.494;2022-07-12T00:41:26;9.10;;;4.23;;
2756;SDS011;1386;50.862;6.494;2022-07-12T00:43:53;4.37;;;3.97;;
2756;SDS011;1386;50.862;6.494;2022-07-12T00:46:21;4.67;;;4.27;;
2756;SDS011;1386;50.862;6.494;2022-07-12T00:48:50;4.30;;;3.90;;
2756;SDS011;1386;50.862;6.494;2022-07-12T00:51:18;5.57;;;4.20;;
2756;SDS011;1386;50.862;6.494;2022-07-12T00:53:45;5.27;;;4.37;;
2756;SDS011;1386;50.862;6.494;2022-07-12T00:56:12;4.87;;;4.37;;
2756;SDS011;1386;50.862;6.494;2022-07-12T00:58:40;4.93;;;3.90;;
2756;SDS011;1386;50.862;6.494;2022-07-12T01:01:07;6.00;;;4.00;;
2756;SDS011;1386;50.862;6.494;2022-07-12T01:03:35;6.07;;;4.67;;
2756;SDS011;1386;50.862;6.494;2022-07-12T01:06:03;5.77;;;3.80;;
2756;SDS011;1386;50.862;6.494;2022-07-12T01:08:31;4.77;;;4.10;;
2756;SDS011;1386;50.862;6.494;2022-07-12T01:10:59;5.87;;;3.90;;
2756;SDS011;1386;50.862;6.494;2022-07-12T01:13:26;6.37;;;4.13;;
2756;SDS011;1386;50.862;6.494;2022-07-12T01:15:53;5.67;;;4.37;;
2756;SDS011;1386;50.862;6.494;2022-07-12T01:18:20;5.40;;;4.23;;
2756;SDS011;1386;50.862;6.494;2022-07-12T01:20:48;9.00;;;4.23;;
2756;SDS011;1386;50.862;6.494;2022-07-12T01:23:16;8.80;;;4.60;;
2756;SDS011;1386;50.862;6.494;2022-07-12T01:25:43;5.53;;;4.40;;
2756;SDS011;1386;50.862;6.494;2022-07-12T01:28:10;5.60;;;4.07;;
2756;SDS011;1386;50.862;6.494;2022-07-12T01:30:37;4.80;;;4.33;;
2756;SDS011;1386;50.862;6.494;2022-07-12T01:33:04;6.43;;;4.17;;
2756;SDS011;1386;50.862;6.494;2022-07-12T01:35:30;5.47;;;4.70;;
2756;SDS011;1386;50.862;6.494;2022-07-12T01:37:58;5.03;;;4.37;;
2756;SDS011;1386;50.862;6.494;2022-07-12T01:40:26;5.70;;;4.67;;
2756;SDS011;1386;50.862;6.494;2022-07-12T01:42:53;5.13;;;4.53;;
2756;SDS011;1386;50.862;6.494;2022-07-12T01:45:21;4.93;;;4.43;;
2756;SDS011;1386;50.862;6.494;2022-07-12T01:47:47;5.10;;;4.60;;
2756;SDS011;1386;50.862;6.494;2022-07-12T01:50:14;5.17;;;4.67;;
2756;SDS011;1386;50.862;6.494;2022-07-12T01:52:42;7.57;;;4.80;;
2756;SDS011;1386;50.862;6.494;2022-07-12T01:55:09;7.20;;;5.53;;
2756;SDS011;1386;50.862;6.494;2022-07-12T01:57:38;5.20;;;4.70;;
2756;SDS011;1386;50.862;6.494;2022-07-12T02:00:08;6.23;;;5.00;;
2756;SDS011;1386;50.862;6.494;2022-07-12T02:02:35;6.37;;;5.40;;
2756;SDS011;1386;50.862;6.494;2022-07-12T02:05:03;5.43;;;4.47;;
2756;SDS011;1386;50.862;6.494;2022-07-12T02:07:30;5.47;;;4.97;;
2756;SDS011;1386;50.862;6.494;2022-07-12T02:09:58;7.23;;;4.83;;
2756;SDS011;1386;50.862;6.494;2022-07-12T02:12:25;7.87;;;5.63;;
2756;SDS011;1386;50.862;6.494;2022-07-12T02:14:53;6.07;;;5.13;;
2756;SDS011;1386;50.862;6.494;2022-07-12T02:17:20;8.60;;;5.60;;
2756;SDS011;1386;50.862;6.494;2022-07-12T02:19:47;6.40;;;5.00;;
2756;SDS011;1386;50.862;6.494;2022-07-12T02:22:14;5.60;;;4.83;;
2756;SDS011;1386;50.862;6.494;2022-07-12T02:24:40;5.50;;;4.27;;
2756;SDS011;1386;50.862;6.494;2022-07-12T02:27:07;7.43;;;6.23;;
2756;SDS011;1386;50.862;6.494;2022-07-12T02:29:34;6.00;;;4.77;;
2756;SDS011;1386;50.862;6.494;2022-07-12T02:32:03;6.83;;;4.93;;
2756;SDS011;1386;50.862;6.494;2022-07-12T02:34:30;8.30;;;5.47;;
2756;SDS011;1386;50.862;6.494;2022-07-12T02:36:57;6.40;;;4.90;;
2756;SDS011;1386;50.862;6.494;2022-07-12T02:39:24;5.27;;;4.73;;
2756;SDS011;1386;50.862;6.494;2022-07-12T02:41:51;6.27;;;5.47;;
2756;SDS011;1386;50.862;6.494;2022-07-12T02:44:18;11.07;;;5.60;;
2756;SDS011;1386;50.862;6.494;2022-07-12T02:46:45;7.17;;;5.20;;
2756;SDS011;1386;50.862;6.494;2022-07-12T02:49:13;7.40;;;5.37;;
2756;SDS011;1386;50.862;6.494;2022-07-12T02:51:40;9.20;;;5.50;;
2756;SDS011;1386;50.862;6.494;2022-07-12T02:54:07;6.83;;;5.13;;
2756;SDS011;1386;50.862;6.494;2022-07-12T02:56:33;5.70;;;5.20;;
2756;SDS011;1386;50.862;6.494;2022-07-12T02:59:00;6.40;;;5.60;;
2756;SDS011;1386;50.862;6.494;2022-07-12T03:01:27;6.20;;;5.60;;
2756;SDS011;1386;50.862;6.494;2022-07-12T03:03:54;5.57;;;5.07;;
2756;SDS011;1386;50.862;6.494;2022-07-12T03:06:22;9.70;;;5.97;;
2756;SDS011;1386;50.862;6.494;2022-07-12T03:08:49;8.10;;;6.03;;
2756;SDS011;1386;50.862;6.494;2022-07-12T03:11:16;8.30;;;5.90;;
2756;SDS011;1386;50.862;6.494;2022-07-12T03:13:43;8.53;;;6.33;;
2756;SDS011;1386;50.862;6.494;2022-07-12T03:16:09;7.57;;;6.40;;
2756;SDS011;1386;50.862;6.494;2022-07-12T03:18:38;7.80;;;6.30;;
2756;SDS011;1386;50.862;6.494;2022-07-12T03:21:05;6.97;;;5.93;;
2756;SDS011;1386;50.862;6.494;2022-07-12T03:23:34;7.03;;;5.67;;
2756;SDS011;1386;50.862;6.494;2022-07-12T03:26:01;8.60;;;6.40;;
2756;SDS011;1386;50.862;6.494;2022-07-12T03:28:28;7.40;;;6.70;;
2756;SDS011;1386;50.862;6.494;2022-07-12T03:30:55;8.17;;;6.50;;
2756;SDS011;1386;50.862;6.494;2022-07-12T03:33:22;8.37;;;6.27;;
2756;SDS011;1386;50.862;6.494;2022-07-12T03:35:49;7.50;;;6.00;;
2756;SDS011;1386;50.862;6.494;2022-07-12T03:38:16;6.70;;;6.00;;
2756;SDS011;1386;50.862;6.494;2022-07-12T03:40:44;8.57;;;6.53;;
2756;SDS011;1386;50.862;6.494;2022-07-12T03:43:11;10.53;;;6.60;;
2756;SDS011;1386;50.862;6.494;2022-07-12T03:45:38;8.77;;;5.90;;
2756;SDS011;1386;50.862;6.494;2022-07-12T03:48:07;8.50;;;6.90;;
2756;SDS011;1386;50.862;6.494;2022-07-12T03:50:34;8.90;;;6.23;;
2756;SDS011;1386;50.862;6.494;2022-07-12T03:53:01;7.00;;;5.97;;
2756;SDS011;1386;50.862;6.494;2022-07-12T03:55:27;8.27;;;6.30;;
2756;SDS011;1386;50.862;6.494;2022-07-12T03:57:56;10.70;;;6.83;;
2756;SDS011;1386;50.862;6.494;2022-07-12T04:00:23;9.87;;;6.83;;
2756;SDS011;1386;50.862;6.494;2022-07-12T04:02:49;9.10;;;6.87;;
2756;SDS011;1386;50.862;6.494;2022-07-12T04:05:19;8.67;;;7.07;;
2756;SDS011;1386;50.862;6.494;2022-07-12T04:07:45;6.60;;;5.77;;
2756;SDS011;1386;50.862;6.494;2022-07-12T04:10:12;8.90;;;6.83;;
2756;SDS011;1386;50.862;6.494;2022-07-12T04:12:39;8.17;;;7.37;;
2756;SDS011;1386;50.862;6.494;2022-07-12T04:15:08;7.10;;;6.17;;
2756;SDS011;1386;50.862;6.494;2022-07-12T04:17:35;6.50;;;5.80;;
2756;SDS011;1386;50.862;6.494;2022-07-12T04:20:02;7.13;;;6.37;;
2756;SDS011;1386;50.862;6.494;2022-07-12T04:22:29;8.77;;;5.77;;
2756;SDS011;1386;50.862;6.494;2022-07-12T04:24:56;8.20;;;6.60;;
2756;SDS011;1386;50.862;6.494;2022-07-12T04:27:24;8.40;;;7.00;;
2756;SDS011;1386;50.862;6.494;2022-07-12T04:29:52;8.83;;;7.70;;
2756;SDS011;1386;50.862;6.494;2022-07-12T04:32:21;8.03;;;6.40;;
2756;SDS011;1386;50.862;6.494;2022-07-12T04:34:47;10.10;;;7.37;;
2756;SDS011;1386;50.862;6.494;2022-07-12T04:37:14;7.87;;;7.10;;
2756;SDS011;1386;50.862;6.494;2022-07-12T04:39:41;10.10;;;7.30;;
2756;SDS011;1386;50.862;6.494;2022-07-12T04:42:08;8.83;;;7.17;;
2756;SDS011;1386;50.862;6.494;2022-07-12T04:44:35;6.93;;;6.10;;
2756;SDS011;1386;50.862;6.494;2022-07-12T04:47:02;10.83;;;7.57;;
2756;SDS011;1386;50.862;6.494;2022-07-12T04:49:32;8.90;;;8.00;;
2756;SDS011;1386;50.862;6.494;2022-07-12T04:51:59;8.13;;;7.17;;
2756;SDS011;1386;50.862;6.494;2022-07-12T04:54:26;11.87;;;8.00;;
2756;SDS011;1386;50.862;6.494;2022-07-12T04:56:53;9.73;;;7.80;;
2756;SDS011;1386;50.862;6.494;2022-07-12T04:59:20;8.60;;;7.80;;
2756;SDS011;1386;50.862;6.494;2022-07-12T05:01:47;10.50;;;8.03;;
2756;SDS011;1386;50.862;6.494;2022-07-12T05:04:15;10.30;;;9.00;;
2756;SDS011;1386;50.862;6.494;2022-07-12T05:06:43;10.07;;;9.07;;
2756;SDS011;1386;50.862;6.494;2022-07-12T05:09:10;9.63;;;8.40;;
2756;SDS011;1386;50.862;6.494;2022-07-12T05:11:37;10.47;;;9.30;;
2756;SDS011;1386;50.862;6.494;2022-07-12T05:14:03;13.63;;;11.00;;
2756;SDS011;1386;50.862;6.494;2022-07-12T05:16:31;11.73;;;9.30;;
2756;SDS011;1386;50.862;6.494;2022-07-12T05:18:59;12.47;;;9.97;;
2756;SDS011;1386;50.862;6.494;2022-07-12T05:21:26;14.17;;;9.93;;
2756;SDS011;1386;50.862;6.494;2022-07-12T05:23:54;13.30;;;9.93;;
2756;SDS011;1386;50.862;6.494;2022-07-12T05:26:21;12.50;;;10.00;;
2756;SDS011;1386;50.862;6.494;2022-07-12T05:28:48;11.50;;;10.00;;
2756;SDS011;1386;50.862;6.494;2022-07-12T05:31:15;11.73;;;10.53;;
2756;SDS011;1386;50.862;6.494;2022-07-12T05:33:42;13.10;;;10.30;;
2756;SDS011;1386;50.862;6.494;2022-07-12T05:36:09;14.40;;;10.30;;
2756;SDS011;1386;50.862;6.494;2022-07-12T05:38:36;11.27;;;10.20;;
2756;SDS011;1386;50.862;6.494;2022-07-12T05:41:04;12.20;;;10.47;;
2756;SDS011;1386;50.862;6.494;2022-07-12T05:43:31;13.40;;;10.03;;
2756;SDS011;1386;50.862;6.494;2022-07-12T05:45:58;13.70;;;11.50;;
2756;SDS011;1386;50.862;6.494;2022-07-12T05:48:25;13.20;;;10.60;;
2756;SDS011;1386;50.862;6.494;2022-07-12T05:50:53;15.87;;;13.13;;
2756;SDS011;1386;50.862;6.494;2022-07-12T05:53:20;17.60;;;12.97;;
2756;SDS011;1386;50.862;6.494;2022-07-12T05:55:50;15.67;;;11.80;;
2756;SDS011;1386;50.862;6.494;2022-07-12T06:01:04;14.83;;;11.60;;
2756;SDS011;1386;50.862;6.494;2022-07-12T06:03:31;20.90;;;12.57;;
2756;SDS011;1386;50.862;6.494;2022-07-12T06:05:58;16.03;;;12.47;;
2756;SDS011;1386;50.862;6.494;2022-07-12T06:08:25;19.20;;;13.40;;
2756;SDS011;1386;50.862;6.494;2022-07-12T06:10:53;16.03;;;11.53;;
2756;SDS011;1386;50.862;6.494;2022-07-12T06:13:20;13.87;;;10.47;;
2756;SDS011;1386;50.862;6.494;2022-07-12T06:15:48;12.13;;;9.50;;
2756;SDS011;1386;50.862;6.494;2022-07-12T06:18:15;13.57;;;11.50;;
2756;SDS011;1386;50.862;6.494;2022-07-12T06:20:42;15.17;;;11.13;;
2756;SDS011;1386;50.862;6.494;2022-07-12T06:23:09;14.03;;;12.20;;
2756;SDS011;1386;50.862;6.494;2022-07-12T06:25:36;15.30;;;10.73;;
2756;SDS011;1386;50.862;6.494;2022-07-12T06:28:03;14.80;;;10.30;;
2756;SDS011;1386;50.862;6.494;2022-07-12T06:30:31;14.17;;;12.13;;
2756;SDS011;1386;50.862;6.494;2022-07-12T06:32:59;13.90;;;11.70;;
2756;SDS011;1386;50.862;6.494;2022-07-12T06:35:26;14.40;;;12.90;;
2756;SDS011;1386;50.862;6.494;2022-07-12T06:37:53;17.33;;;13.60;;
2756;SDS011;1386;50.862;6.494;2022-07-12T06:40:20;14.20;;;12.70;;
2756;SDS011;1386;50.862;6.494;2022-07-12T06:42:48;14.40;;;12.87;;
2756;SDS011;1386;50.862;6.494;2022-07-12T06:45:15;13.63;;;12.13;;
2756;SDS011;1386;50.862;6.494;2022-07-12T06:47:43;14.47;;;12.90;;
2756;SDS011;1386;50.862;6.494;2022-07-12T06:50:11;14.13;;;12.40;;
2756;SDS011;1386;50.862;6.494;2022-07-12T06:52:38;17.83;;;12.07;;
2756;SDS011;1386;50.862;6.494;2022-07-12T06:55:05;14.37;;;12.03;;
2756;SDS011;1386;50.862;6.494;2022-07-12T06:57:33;12.93;;;10.93;;
2756;SDS011;1386;50.862;6.494;2022-07-12T07:00:00;13.00;;;11.07;;
2756;SDS011;1386;50.862;6.494;2022-07-12T07:02:29;11.40;;;9.97;;
2756;SDS011;1386;50.862;6.494;2022-07-12T07:04:56;10.57;;;9.47;;
2756;SDS011;1386;50.862;6.494;2022-07-12T07:07:24;12.13;;;10.93;;
2756;SDS011;1386;50.862;6.494;2022-07-12T07:09:51;13.83;;;10.77;;
2756;SDS011;1386;50.862;6.494;2022-07-12T07:12:18;16.37;;;10.53;;
2756;SDS011;1386;50.862;6.494;2022-07-12T07:14:45;12.87;;;9.70;;
2756;SDS011;1386;50.862;6.494;2022-07-12T07:17:12;11.80;;;10.20;;
2756;SDS011;1386;50.862;6.494;2022-07-12T07:19:41;10.93;;;9.53;;
2756;SDS011;1386;50.862;6.494;2022-07-12T07:22:08;11.70;;;10.50;;
2756;SDS011;1386;50.862;6.494;2022-07-12T07:24:37;11.47;;;10.10;;
2756;SDS011;1386;50.862;6.494;2022-07-12T07:27:04;14.13;;;10.03;;
2756;SDS011;1386;50.862;6.494;2022-07-12T07:29:31;12.50;;;10.20;;
2756;SDS011;1386;50.862;6.494;2022-07-12T07:32:15;10.47;;;9.43;;
2756;SDS011;1386;50.862;6.494;2022-07-12T07:34:42;9.90;;;8.30;;
2756;SDS011;1386;50.862;6.494;2022-07-12T07:37:09;10.37;;;8.87;;
2756;SDS011;1386;50.862;6.494;2022-07-12T07:39:37;11.07;;;7.53;;
2756;SDS011;1386;50.862;6.494;2022-07-12T07:42:04;8.67;;;7.77;;
2756;SDS011;1386;50.862;6.494;2022-07-12T07:44:31;8.23;;;7.43;;
2756;SDS011;1386;50.862;6.494;2022-07-12T07:46:58;10.53;;;7.33;;
2756;SDS011;1386;50.862;6.494;2022-07-12T07:49:25;10.13;;;7.17;;
2756;SDS011;1386;50.862;6.494;2022-07-12T07:51:52;8.10;;;6.87;;
2756;SDS011;1386;50.862;6.494;2022-07-12T07:54:19;8.50;;;6.43;;
2756;SDS011;1386;50.862;6.494;2022-07-12T07:56:47;10.00;;;6.30;;
2756;SDS011;1386;50.862;6.494;2022-07-12T07:59:14;6.97;;;6.30;;
2756;SDS011;1386;50.862;6.494;2022-07-12T08:01:41;8.20;;;5.80;;
2756;SDS011;1386;50.862;6.494;2022-07-12T08:04:17;8.23;;;5.70;;
2756;SDS011;1386;50.862;6.494;2022-07-12T08:06:45;5.67;;;5.07;;
2756;SDS011;1386;50.862;6.494;2022-07-12T08:09:13;6.70;;;5.17;;
2756;SDS011;1386;50.862;6.494;2022-07-12T08:11:40;5.90;;;4.10;;
2756;SDS011;1386;50.862;6.494;2022-07-12T08:14:09;5.43;;;4.07;;
2756;SDS011;1386;50.862;6.494;2022-07-12T08:16:36;7.60;;;6.70;;
2756;SDS011;1386;50.862;6.494;2022-07-12T08:19:04;7.80;;;6.73;;
2756;SDS011;1386;50.862;6.494;2022-07-12T08:21:32;6.43;;;5.60;;
2756;SDS011;1386;50.862;6.494;2022-07-12T08:23:59;5.50;;;4.63;;
2756;SDS011;1386;50.862;6.494;2022-07-12T08:26:26;6.60;;;4.03;;
2756;SDS011;1386;50.862;6.494;2022-07-12T08:28:53;4.80;;;3.70;;
2756;SDS011;1386;50.862;6.494;2022-07-12T08:31:21;4.77;;;4.20;;
2756;SDS011;1386;50.862;6.494;2022-07-12T08:33:48;6.10;;;4.20;;
2756;SDS011;1386;50.862;6.494;2022-07-12T08:36:15;4.13;;;3.73;;
2756;SDS011;1386;50.862;6.494;2022-07-12T08:38:42;4.67;;;4.17;;
2756;SDS011;1386;50.862;6.494;2022-07-12T08:41:11;4.53;;;3.60;;
2756;SDS011;1386;50.862;6.494;2022-07-12T08:43:39;5.23;;;3.80;;
2756;SDS011;1386;50.862;6.494;2022-07-12T08:46:07;3.97;;;3.57;;
2756;SDS011;1386;50.862;6.494;2022-07-12T08:48:37;3.60;;;3.13;;
2756;SDS011;1386;50.862;6.494;2022-07-12T08:51:05;5.00;;;4.50;;
2756;SDS011;1386;50.862;6.494;2022-07-12T08:53:33;4.30;;;3.87;;
2756;SDS011;1386;50.862;6.494;2022-07-12T08:56:01;5.97;;;4.63;;
2756;SDS011;1386;50.862;6.494;2022-07-12T08:58:28;4.60;;;4.20;;
2756;SDS011;1386;50.862;6.494;2022-07-12T09:00:55;3.70;;;2.63;;
2756;SDS011;1386;50.862;6.494;2022-07-12T09:03:25;3.20;;;2.90;;
2756;SDS011;1386;50.862;6.494;2022-07-12T09:05:54;3.23;;;2.70;;
2756;SDS011;1386;50.862;6.494;2022-07-12T09:08:24;4.00;;;3.20;;
2756;SDS011;1386;50.862;6.494;2022-07-12T09:10:53;1.70;;;1.60;;
2756;SDS011;1386;50.862;6.494;2022-07-12T09:16:15;3.43;;;3.13;;
2756;SDS011;1386;50.862;6.494;2022-07-12T09:18:43;4.47;;;3.03;;
2756;SDS011;1386;50.862;6.494;2022-07-12T09:21:21;3.47;;;3.17;;
2756;SDS011;1386;50.862;6.494;2022-07-12T09:23:53;3.73;;;2.93;;
2756;SDS011;1386;50.862;6.494;2022-07-12T09:26:21;8.10;;;3.07;;
2756;SDS011;1386;50.862;6.494;2022-07-12T09:28:49;4.60;;;2.90;;
2756;SDS011;1386;50.862;6.494;2022-07-12T09:31:16;4.00;;;2.70;;
2756;SDS011;1386;50.862;6.494;2022-07-12T09:33:58;3.93;;;2.93;;
2756;SDS011;1386;50.862;6.494;2022-07-12T09:36:56;4.33;;;2.83;;
2756;SDS011;1386;50.862;6.494;2022-07-12T09:39:23;3.50;;;3.20;;
2756;SDS011;1386;50.862;6.494;2022-07-12T09:41:51;2.97;;;2.67;;
2756;SDS011;1386;50.862;6.494;2022-07-12T09:44:20;3.27;;;2.97;;
2756;SDS011;1386;50.862;6.494;2022-07-12T09:46:47;4.87;;;2.80;;
2756;SDS011;1386;50.862;6.494;2022-07-12T09:49:14;7.50;;;3.40;;
2756;SDS011;1386;50.862;6.494;2022-07-12T09:51:43;3.30;;;2.80;;
2756;SDS011;1386;50.862;6.494;2022-07-12T09:54:12;3.23;;;2.80;;
2756;SDS011;1386;50.862;6.494;2022-07-12T09:56:46;4.73;;;2.30;;
2756;SDS011;1386;50.862;6.494;2022-07-12T09:59:14;2.40;;;2.13;;
2756;SDS011;1386;50.862;6.494;2022-07-12T10:01:46;2.80;;;2.03;;
2756;SDS011;1386;50.862;6.494;2022-07-12T10:04:13;2.73;;;2.00;;
2756;SDS011;1386;50.862;6.494;2022-07-12T10:06:46;2.93;;;2.10;;
2756;SDS011;1386;50.862;6.494;2022-07-12T10:09:15;2.27;;;2.07;;
2756;SDS011;1386;50.862;6.494;2022-07-12T10:11:42;4.27;;;2.53;;
2756;SDS011;1386;50.862;6.494;2022-07-12T10:14:09;4.20;;;2.47;;
2756;SDS011;1386;50.862;6.494;2022-07-12T10:16:38;3.53;;;2.57;;
2756;SDS011;1386;50.862;6.494;2022-07-12T10:19:26;5.43;;;2.20;;
2756;SDS011;1386;50.862;6.494;2022-07-12T10:21:55;2.30;;;1.80;;
2756;SDS011;1386;50.862;6.494;2022-07-12T10:30:21;4.37;;;2.00;;
2756;SDS011;1386;50.862;6.494;2022-07-12T10:32:49;2.37;;;1.50;;
2756;SDS011;1386;50.862;6.494;2022-07-12T10:35:19;3.30;;;1.77;;
2756;SDS011;1386;50.862;6.494;2022-07-12T10:40:48;2.80;;;1.40;;
2756;SDS011;1386;50.862;6.494;2022-07-12T10:43:23;2.50;;;1.57;;
2756;SDS011;1386;50.862;6.494;2022-07-12T10:46:05;1.80;;;1.50;;
2756;SDS011;1386;50.862;6.494;2022-07-12T10:48:45;6.70;;;1.60;;
2756;SDS011;1386;50.862;6.494;2022-07-12T10:51:15;1.40;;;1.10;;
2756;SDS011;1386;50.862;6.494;2022-07-12T10:53:44;2.00;;;1.30;;
2756;SDS011;1386;50.862;6.494;2022-07-12T10:56:18;1.73;;;1.20;;
2756;SDS011;1386;50.862;6.494;2022-07-12T10:58:47;2.33;;;1.43;;
2756;SDS011;1386;50.862;6.494;2022-07-12T11:01:16;2.37;;;1.30;;
2756;SDS011;1386;50.862;6.494;2022-07-12T11:03:45;2.07;;;1.20;;
2756;SDS011;1386;50.862;6.494;2022-07-12T11:06:14;1.40;;;1.30;;
2756;SDS011;1386;50.862;6.494;2022-07-12T11:08:46;3.47;;;1.73;;
2756;SDS011;1386;50.862;6.494;2022-07-12T11:11:18;1.80;;;1.20;;
2756;SDS011;1386;50.862;6.494;2022-07-12T11:13:46;1.60;;;1.20;;
2756;SDS011;1386;50.862;6.494;2022-07-12T11:16:14;2.07;;;1.37;;
2756;SDS011;1386;50.862;6.494;2022-07-12T11:18:41;1.70;;;1.23;;
2756;SDS011;1386;50.862;6.494;2022-07-12T11:21:09;2.10;;;1.50;;
2756;SDS011;1386;50.862;6.494;2022-07-12T11:23:36;2.90;;;1.13;;
2756;SDS011;1386;50.862;6.494;2022-07-12T11:26:06;2.00;;;1.30;;
2756;SDS011;1386;50.862;6.494;2022-07-12T11:28:35;3.63;;;1.50;;
2756;SDS011;1386;50.862;6.494;2022-07-12T11:31:03;3.13;;;1.43;;
2756;SDS011;1386;50.862;6.494;2022-07-12T11:33:32;4.20;;;1.50;;
2756;SDS011;1386;50.862;6.494;2022-07-12T11:36:00;4.77;;;1.43;;
2756;SDS011;1386;50.862;6.494;2022-07-12T11:38:31;1.93;;;1.50;;
2756;SDS011;1386;50.862;6.494;2022-07-12T11:40:58;2.00;;;1.27;;
2756;SDS011;1386;50.862;6.494;2022-07-12T11:43:26;1.60;;;1.00;;
2756;SDS011;1386;50.862;6.494;2022-07-12T11:45:55;4.47;;;1.37;;
2756;SDS011;1386;50.862;6.494;2022-07-12T11:48:22;5.80;;;1.57;;
2756;SDS011;1386;50.862;6.494;2022-07-12T11:50:50;3.03;;;1.23;;
2756;SDS011;1386;50.862;6.494;2022-07-12T11:53:18;2.03;;;1.27;;
2756;SDS011;1386;50.862;6.494;2022-07-12T11:55:47;4.37;;;1.70;;
2756;SDS011;1386;50.862;6.494;2022-07-12T11:58:15;1.30;;;1.20;;
2756;SDS011;1386;50.862;6.494;2022-07-12T12:00:42;1.83;;;1.37;;
2756;SDS011;1386;50.862;6.494;2022-07-12T12:03:12;1.77;;;1.10;;
2756;SDS011;1386;50.862;6.494;2022-07-12T12:05:41;4.20;;;1.30;;
2756;SDS011;1386;50.862;6.494;2022-07-12T12:08:08;2.07;;;1.30;;
2756;SDS011;1386;50.862;6.494;2022-07-12T12:10:37;3.00;;;1.20;;
2756;SDS011;1386;50.862;6.494;2022-07-12T12:13:11;5.90;;;1.53;;
2756;SDS011;1386;50.862;6.494;2022-07-12T12:15:39;2.60;;;1.93;;
2756;SDS011;1386;50.862;6.494;2022-07-12T12:18:07;2.93;;;1.40;;
2756;SDS011;1386;50.862;6.494;2022-07-12T12:20:37;1.70;;;1.10;;
2756;SDS011;1386;50.862;6.494;2022-07-12T12:23:06;1.97;;;1.20;;
2756;SDS011;1386;50.862;6.494;2022-07-12T12:25:41;4.03;;;1.53;;
2756;SDS011;1386;50.862;6.494;2022-07-12T12:28:08;1.33;;;1.20;;
2756;SDS011;1386;50.862;6.494;2022-07-12T12:30:47;3.43;;;1.43;;
2756;SDS011;1386;50.862;6.494;2022-07-12T12:36:16;1.80;;;1.27;;
2756;SDS011;1386;50.862;6.494;2022-07-12T12:38:45;2.13;;;1.20;;
2756;SDS011;1386;50.862;6.494;2022-07-12T12:41:13;2.57;;;1.20;;
2756;SDS011;1386;50.862;6.494;2022-07-12T12:43:41;2.40;;;1.40;;
2756;SDS011;1386;50.862;6.494;2022-07-12T12:46:09;2.03;;;1.23;;
2756;SDS011;1386;50.862;6.494;2022-07-12T12:48:36;1.40;;;1.30;;
2756;SDS011;1386;50.862;6.494;2022-07-12T12:51:04;1.97;;;1.53;;
2756;SDS011;1386;50.862;6.494;2022-07-12T12:53:33;1.40;;;1.27;;
2756;SDS011;1386;50.862;6.494;2022-07-12T12:56:04;2.10;;;1.20;;
2756;SDS011;1386;50.862;6.494;2022-07-12T12:58:33;2.50;;;1.40;;
2756;SDS011;1386;50.862;6.494;2022-07-12T13:01:01;5.40;;;1.90;;
2756;SDS011;1386;50.862;6.494;2022-07-12T13:03:29;2.70;;;1.30;;
2756;SDS011;1386;50.862;6.494;2022-07-12T13:05:56;2.27;;;1.30;;
2756;SDS011;1386;50.862;6.494;2022-07-12T13:08:24;4.40;;;2.23;;
2756;SDS011;1386;50.862;6.494;2022-07-12T13:10:53;1.93;;;1.40;;
2756;SDS011;1386;50.862;6.494;2022-07-12T13:13:38;1.87;;;1.10;;
2756;SDS011;1386;50.862;6.494;2022-07-12T13:16:05;7.27;;;1.50;;
2756;SDS011;1386;50.862;6.494;2022-07-12T13:18:32;2.33;;;1.60;;
2756;SDS011;1386;50.862;6.494;2022-07-12T13:20:59;2.87;;;1.60;;
2756;SDS011;1386;50.862;6.494;2022-07-12T13:23:26;1.87;;;1.50;;
2756;SDS011;1386;50.862;6.494;2022-07-12T13:25:54;2.00;;;1.70;;
2756;SDS011;1386;50.862;6.494;2022-07-12T13:28:21;3.90;;;1.33;;
2756;SDS011;1386;50.862;6.494;2022-07-12T13:30:48;2.33;;;1.30;;
2756;SDS011;1386;50.862;6.494;2022-07-12T13:33:17;2.13;;;1.57;;
2756;SDS011;1386;50.862;6.494;2022-07-12T13:35:44;3.50;;;1.50;;
2756;SDS011;1386;50.862;6.494;2022-07-12T13:38:12;4.07;;;1.70;;
2756;SDS011;1386;50.862;6.494;2022-07-12T13:40:39;4.30;;;1.40;;
2756;SDS011;1386;50.862;6.494;2022-07-12T13:43:07;2.00;;;1.37;;
2756;SDS011;1386;50.862;6.494;2022-07-12T13:45:34;2.90;;;1.40;;
2756;SDS011;1386;50.862;6.494;2022-07-12T13:48:01;1.70;;;1.30;;
2756;SDS011;1386;50.862;6.494;2022-07-12T13:50:28;3.03;;;1.20;;
2756;SDS011;1386;50.862;6.494;2022-07-12T13:52:55;2.30;;;1.73;;
2756;SDS011;1386;50.862;6.494;2022-07-12T13:55:24;1.53;;;1.43;;
2756;SDS011;1386;50.862;6.494;2022-07-12T13:57:50;1.30;;;1.00;;
2756;SDS011;1386;50.862;6.494;2022-07-12T14:00:19;1.40;;;1.10;;
2756;SDS011;1386;50.862;6.494;2022-07-12T14:02:46;2.13;;;1.30;;
2756;SDS011;1386;50.862;6.494;2022-07-12T14:05:14;3.00;;;1.60;;
2756;SDS011;1386;50.862;6.494;2022-07-12T14:07:42;2.03;;;1.20;;
2756;SDS011;1386;50.862;6.494;2022-07-12T14:10:10;1.53;;;1.17;;
2756;SDS011;1386;50.862;6.494;2022-07-12T14:12:38;2.10;;;1.37;;
2756;SDS011;1386;50.862;6.494;2022-07-12T14:15:05;1.10;;;1.00;;
2756;SDS011;1386;50.862;6.494;2022-07-12T14:18:02;2.00;;;1.57;;
2756;SDS011;1386;50.862;6.494;2022-07-12T14:20:31;1.93;;;1.30;;
2756;SDS011;1386;50.862;6.494;2022-07-12T14:22:59;1.50;;;0.87;;
2756;SDS011;1386;50.862;6.494;2022-07-12T14:25:27;2.67;;;1.07;;
2756;SDS011;1386;50.862;6.494;2022-07-12T14:27:54;2.03;;;1.07;;
2756;SDS011;1386;50.862;6.494;2022-07-12T14:30:21;1.30;;;1.20;;
2756;SDS011;1386;50.862;6.494;2022-07-12T14:32:48;2.07;;;1.17;;
2756;SDS011;1386;50.862;6.494;2022-07-12T14:35:16;1.37;;;1.07;;
2756;SDS011;1386;50.862;6.494;2022-07-12T14:37:43;1.67;;;1.10;;
2756;SDS011;1386;50.862;6.494;2022-07-12T14:40:10;2.60;;;0.90;;
2756;SDS011;1386;50.862;6.494;2022-07-12T14:42:38;2.27;;;1.57;;
2756;SDS011;1386;50.862;6.494;2022-07-12T14:45:05;1.40;;;1.20;;
2756;SDS011;1386;50.862;6.494;2022-07-12T14:47:33;1.80;;;1.10;;
2756;SDS011;1386;50.862;6.494;2022-07-12T14:50:00;2.10;;;1.27;;
2756;SDS011;1386;50.862;6.494;2022-07-12T14:52:28;1.60;;;1.20;;
2756;SDS011;1386;50.862;6.494;2022-07-12T14:54:55;1.20;;;0.97;;
2756;SDS011;1386;50.862;6.494;2022-07-12T14:57:22;1.63;;;1.07;;
2756;SDS011;1386;50.862;6.494;2022-07-12T14:59:49;1.47;;;1.17;;
2756;SDS011;1386;50.862;6.494;2022-07-12T15:02:17;1.63;;;1.30;;
2756;SDS011;1386;50.862;6.494;2022-07-12T15:04:44;1.73;;;1.03;;
2756;SDS011;1386;50.862;6.494;2022-07-12T15:07:11;2.00;;;1.30;;
2756;SDS011;1386;50.862;6.494;2022-07-12T15:09:39;3.70;;;1.40;;
2756;SDS011;1386;50.862;6.494;2022-07-12T15:12:06;3.13;;;1.40;;
2756;SDS011;1386;50.862;6.494;2022-07-12T16:05:15;3.70;;;1.73;;
2756;SDS011;1386;50.862;6.494;2022-07-12T16:07:43;4.20;;;1.50;;
2756;SDS011;1386;50.862;6.494;2022-07-12T16:10:10;5.10;;;1.47;;
2756;SDS011;1386;50.862;6.494;2022-07-12T16:33:07;4.30;;;1.63;;
2756;SDS011;1386;50.862;6.494;2022-07-12T16:35:34;4.80;;;1.60;;
2756;SDS011;1386;50.862;6.494;2022-07-12T16:38:01;3.87;;;1.90;;
2756;SDS011;1386;50.862;6.494;2022-07-12T16:40:29;3.90;;;1.50;;
2756;SDS011;1386;50.862;6.494;2022-07-12T16:42:56;3.00;;;1.37;;
2756;SDS011;1386;50.862;6.494;2022-07-12T16:45:23;4.30;;;1.80;;